Time;durP1;ratioP1;P1;durP2;ratioP2;P2;SDS_P1;SDS_P2;PMS_P1;PMS_P2;Temp;Humidity;BMP_temperature;BMP_pressure;BME280_temperature;BME280_humidity;BME280_pressure;Samples;Min_cycle;Max_cycle;Signal;HPM_P1;HPM_P2
2024/02/15 00:01:23;;;;;;;2.73;2.10;;;11.70;98.00;;;;;;5082910;28;20945;-86
2024/02/15 00:03:50;;;;;;;2.70;2.27;;;11.70;98.00;;;;;;5072021;28;20464;-86
2024/02/15 00:06:17;;;;;;;4.27;2.33;;;11.60;98.00;;;;;;5071509;28;20458;-86
2024/02/15 00:08:44;;;;;;;3.20;2.43;;;11.60;98.00;;;;;;5071746;28;20466;-86
2024/02/15 00:11:13;;;;;;;3.43;2.30;;;11.60;98.00;;;;;;5071210;28;20980;-86
2024/02/15 00:13:40;;;;;;;3.57;2.23;;;11.60;98.00;;;;;;5071464;28;20475;-86
2024/02/15 00:16:08;;;;;;;2.30;2.10;;;11.60;98.00;;;;;;5071090;28;20490;-86
2024/02/15 00:18:35;;;;;;;3.00;2.13;;;11.60;98.00;;;;;;5071513;28;20496;-86
2024/02/15 00:21:06;;;;;;;4.77;2.50;;;11.60;98.00;;;;;;5071163;28;20467;-86
2024/02/15 01:07:27;;;;;;;3.10;2.20;;;11.40;98.00;;;;;;5031498;28;20997;-86
2024/02/15 01:09:54;;;;;;;3.70;2.30;;;11.30;98.00;;;;;;5030766;28;20967;-86
2024/02/15 01:12:21;;;;;;;5.60;2.10;;;11.30;98.00;;;;;;5030913;28;20469;-86
2024/02/15 01:14:48;;;;;;;3.43;2.23;;;11.30;98.00;;;;;;5054269;28;20482;-86
2024/02/15 01:17:17;;;;;;;2.80;2.03;;;11.20;98.00;;;;;;5073274;28;20458;-86
2024/02/15 01:19:44;;;;;;;2.60;1.93;;;11.20;98.00;;;;;;5072627;28;20491;-86
2024/02/15 01:22:12;;;;;;;3.10;2.10;;;11.20;98.00;;;;;;5072579;28;20455;-86
2024/02/15 01:24:41;;;;;;;8.00;2.40;;;11.20;98.00;;;;;;5072961;28;20863;-86
2024/02/15 01:27:08;;;;;;;4.63;2.13;;;11.30;98.00;;;;;;5072611;28;20639;-86
2024/02/15 01:29:36;;;;;;;4.10;2.40;;;11.30;98.00;;;;;;5072705;28;20459;-86
2024/02/15 01:32:05;;;;;;;3.57;2.10;;;11.20;98.00;;;;;;5072331;28;20449;-86
2024/02/15 01:34:32;;;;;;;5.00;2.10;;;11.10;98.00;;;;;;5072356;28;20484;-86
2024/02/15 01:36:59;;;;;;;3.03;2.10;;;11.10;98.00;;;;;;5072241;28;20543;-86
2024/02/15 01:39:26;;;;;;;3.20;1.93;;;11.00;98.00;;;;;;5072581;28;21005;-86
2024/02/15 01:41:56;;;;;;;2.60;1.90;;;11.00;98.00;;;;;;5071923;28;20461;-86
2024/02/15 01:44:24;;;;;;;3.13;2.20;;;11.00;98.00;;;;;;5072451;28;20521;-86
2024/02/15 01:46:53;;;;;;;1.93;1.77;;;10.80;98.00;;;;;;5071965;28;21003;-86
2024/02/15 01:49:21;;;;;;;4.43;2.30;;;10.70;98.00;;;;;;5072506;28;20454;-86
2024/02/15 01:51:50;;;;;;;4.80;2.30;;;10.70;98.00;;;;;;5071754;28;20457;-86
2024/02/15 01:54:18;;;;;;;2.90;2.10;;;10.80;98.00;;;;;;5072276;28;20506;-86
2024/02/15 01:56:45;;;;;;;2.83;2.00;;;10.70;98.00;;;;;;5071813;28;20535;-86
2024/02/15 01:59:16;;;;;;;2.87;2.00;;;10.70;98.00;;;;;;5071771;28;20483;-86
2024/02/15 02:01:44;;;;;;;3.30;2.23;;;10.80;98.00;;;;;;5072047;28;20853;-86
2024/02/15 02:04:11;;;;;;;2.33;1.90;;;10.80;98.00;;;;;;5072373;28;20477;-86
2024/02/15 02:06:38;;;;;;;4.37;2.27;;;10.60;98.00;;;;;;5069856;28;20470;-86
2024/02/15 02:09:06;;;;;;;4.90;2.40;;;10.40;98.00;;;;;;5071843;28;20461;-86
2024/02/15 02:11:33;;;;;;;2.80;2.23;;;10.40;98.00;;;;;;5071893;28;20884;-86
2024/02/15 02:14:00;;;;;;;2.40;1.90;;;10.30;98.00;;;;;;5072029;28;20466;-86
2024/02/15 02:16:29;;;;;;;7.10;2.30;;;10.40;98.00;;;;;;5072102;28;20455;-86
2024/02/15 02:18:57;;;;;;;2.53;1.90;;;10.40;98.00;;;;;;5072235;28;20540;-86
2024/02/15 02:21:25;;;;;;;2.50;2.10;;;10.30;98.00;;;;;;5077666;28;20451;-86
2024/02/15 02:23:56;;;;;;;7.00;2.13;;;10.20;98.00;;;;;;5096504;28;20435;-85
2024/02/15 02:26:26;;;;;;;3.00;2.10;;;10.00;98.00;;;;;;5075199;28;20518;-86
2024/02/15 02:28:54;;;;;;;3.20;1.90;;;10.00;98.00;;;;;;5071836;28;20523;-86
2024/02/15 02:31:21;;;;;;;4.57;2.13;;;10.00;98.00;;;;;;5071429;28;20464;-86
2024/02/15 02:33:51;;;;;;;5.47;2.20;;;10.00;98.00;;;;;;5071443;28;20500;-86
2024/02/15 02:36:18;;;;;;;4.63;2.50;;;10.10;98.00;;;;;;5071855;28;20804;-86
2024/02/15 02:38:49;;;;;;;3.23;2.30;;;10.10;98.00;;;;;;5071352;28;20485;-86
2024/02/15 02:41:17;;;;;;;3.13;2.10;;;10.00;98.00;;;;;;5070882;28;20456;-86
2024/02/15 02:43:45;;;;;;;3.50;2.40;;;10.10;98.00;;;;;;5071172;28;20463;-86
2024/02/15 02:46:12;;;;;;;2.73;2.23;;;10.10;98.00;;;;;;5071072;28;20975;-86
2024/02/15 02:48:39;;;;;;;3.23;2.20;;;10.10;98.00;;;;;;5070679;28;20466;-86
2024/02/15 02:51:08;;;;;;;2.80;2.20;;;10.00;98.00;;;;;;5070749;28;20943;-86
2024/02/15 02:53:35;;;;;;;3.30;2.20;;;9.90;98.00;;;;;;5071402;28;20468;-86
2024/02/15 02:56:03;;;;;;;6.83;2.20;;;10.00;98.00;;;;;;5071046;28;20483;-86
2024/02/15 02:58:30;;;;;;;2.37;2.03;;;9.90;98.00;;;;;;5071357;28;20827;-86
2024/02/15 03:01:01;;;;;;;3.70;2.33;;;9.80;98.00;;;;;;5070350;28;20462;-86
2024/02/15 03:03:29;;;;;;;4.63;2.43;;;9.80;98.00;;;;;;5071070;28;20489;-86
2024/02/15 03:05:56;;;;;;;3.73;2.27;;;9.80;98.00;;;;;;5070610;28;20800;-86
2024/02/15 03:08:23;;;;;;;2.10;2.00;;;9.70;98.00;;;;;;5071067;28;20460;-86
2024/02/15 03:10:51;;;;;;;4.20;2.33;;;9.50;98.00;;;;;;5070898;28;20546;-86
2024/02/15 03:13:20;;;;;;;2.77;2.10;;;9.40;98.00;;;;;;5071016;28;20541;-86
2024/02/15 03:15:48;;;;;;;6.90;2.33;;;9.40;98.00;;;;;;5070627;28;20476;-86
2024/02/15 03:18:17;;;;;;;4.57;2.30;;;9.40;98.00;;;;;;5071013;28;20892;-86
2024/02/15 03:20:44;;;;;;;5.43;2.50;;;9.30;98.00;;;;;;5070145;28;21011;-86
2024/02/15 03:23:12;;;;;;;4.63;2.60;;;9.40;98.00;;;;;;5070762;28;20825;-86
2024/02/15 03:25:39;;;;;;;6.10;2.40;;;9.40;98.00;;;;;;5070965;28;20521;-86
2024/02/15 03:28:06;;;;;;;5.60;3.03;;;9.40;98.00;;;;;;5070541;28;20899;-86
2024/02/15 03:30:34;;;;;;;4.50;2.90;;;9.20;98.00;;;;;;5070457;28;20466;-86
2024/02/15 03:33:03;;;;;;;4.53;2.57;;;9.20;98.00;;;;;;5070864;28;20488;-86
2024/02/15 03:35:31;;;;;;;4.27;2.40;;;9.20;98.00;;;;;;5071258;28;20841;-86
2024/02/15 03:37:59;;;;;;;4.70;2.50;;;9.20;98.00;;;;;;5070434;28;20492;-85
2024/02/15 03:40:26;;;;;;;4.47;2.47;;;9.20;98.00;;;;;;5070641;28;20571;-86
2024/02/15 03:42:54;;;;;;;6.83;2.60;;;9.10;98.00;;;;;;5070211;28;20461;-86
2024/02/15 03:45:24;;;;;;;4.60;2.63;;;9.10;98.00;;;;;;5070747;28;20488;-86
2024/02/15 03:47:51;;;;;;;2.83;2.07;;;9.20;98.00;;;;;;5070252;28;20464;-86
2024/02/15 03:50:18;;;;;;;4.80;2.50;;;9.20;98.00;;;;;;5070373;28;21034;-86
2024/02/15 03:52:47;;;;;;;3.83;2.50;;;9.20;98.00;;;;;;5070265;28;20449;-86
2024/02/15 03:55:14;;;;;;;3.70;2.50;;;9.10;98.00;;;;;;5070675;28;20990;-87
2024/02/15 03:57:43;;;;;;;3.63;2.37;;;9.00;98.00;;;;;;5070650;28;20461;-86
2024/02/15 04:00:13;;;;;;;3.37;2.30;;;8.90;98.00;;;;;;5071008;28;20896;-87
2024/02/15 04:02:41;;;;;;;3.97;2.50;;;8.70;98.00;;;;;;5075298;28;20483;-87
2024/02/15 04:05:09;;;;;;;3.33;2.43;;;8.80;98.00;;;;;;5075320;28;20561;-87
2024/02/15 04:07:36;;;;;;;4.30;2.80;;;8.80;98.00;;;;;;5075530;28;20968;-87
2024/02/15 04:10:06;;;;;;;4.00;2.40;;;8.70;98.00;;;;;;5076975;28;20950;-86
2024/02/15 04:12:33;;;;;;;4.27;2.67;;;8.60;98.00;;;;;;5073833;28;20458;-86
2024/02/15 04:15:05;;;;;;;4.93;2.90;;;8.70;98.00;;;;;;5074286;28;20517;-86
2024/02/15 04:17:34;;;;;;;3.60;2.37;;;8.50;98.00;;;;;;5074127;28;20457;-86
2024/02/15 04:20:03;;;;;;;6.00;2.60;;;8.30;98.00;;;;;;5073933;28;20571;-85
2024/02/15 04:22:37;;;;;;;4.00;2.40;;;8.30;98.00;;;;;;5073468;28;20456;-86
2024/02/15 04:25:07;;;;;;;3.80;2.37;;;8.40;98.00;;;;;;5073847;28;20475;-86
2024/02/15 04:27:34;;;;;;;5.20;2.73;;;8.30;98.00;;;;;;5074006;28;20889;-86
2024/02/15 04:30:04;;;;;;;4.50;2.50;;;8.20;98.00;;;;;;5073922;28;20465;-86
2024/02/15 04:32:33;;;;;;;5.43;2.43;;;8.20;98.00;;;;;;5073336;28;20453;-86
2024/02/15 04:35:01;;;;;;;6.37;2.67;;;8.30;98.00;;;;;;5074317;28;20475;-86
2024/02/15 04:37:28;;;;;;;3.50;2.50;;;8.20;98.00;;;;;;5073698;28;20489;-86
2024/02/15 04:39:56;;;;;;;7.00;2.83;;;8.30;98.00;;;;;;5073430;28;20644;-86
2024/02/15 04:42:27;;;;;;;4.23;2.63;;;8.30;98.00;;;;;;5073264;28;20526;-86
2024/02/15 04:44:54;;;;;;;4.10;2.73;;;8.20;98.00;;;;;;5075284;28;20513;-86
2024/02/15 04:47:21;;;;;;;5.10;2.80;;;8.30;98.00;;;;;;5096897;28;20479;-85
2024/02/15 04:49:48;;;;;;;4.27;2.43;;;8.30;98.00;;;;;;5084428;28;20460;-86
2024/02/15 04:52:17;;;;;;;3.57;2.90;;;8.30;98.00;;;;;;5072347;28;20468;-86
2024/02/15 04:54:45;;;;;;;5.47;3.17;;;8.30;98.00;;;;;;5073346;28;20481;-86
2024/02/15 04:57:12;;;;;;;4.67;2.80;;;8.40;98.00;;;;;;5073269;28;20520;-86
2024/02/15 04:59:46;;;;;;;4.37;2.53;;;8.40;98.00;;;;;;5073515;28;20570;-86
2024/02/15 05:02:13;;;;;;;4.20;3.00;;;8.40;98.00;;;;;;5072875;28;20485;-86
2024/02/15 05:04:42;;;;;;;3.53;2.50;;;8.60;98.00;;;;;;5073364;28;20564;-86
2024/02/15 05:07:09;;;;;;;6.10;3.20;;;8.60;98.00;;;;;;5072792;28;20458;-86
2024/02/15 05:09:36;;;;;;;5.40;2.80;;;8.70;98.00;;;;;;5073480;28;20467;-86
2024/02/15 05:12:04;;;;;;;4.40;2.77;;;8.70;98.00;;;;;;5072298;28;20517;-86
2024/02/15 05:14:32;;;;;;;3.87;2.73;;;8.70;98.00;;;;;;5073430;28;20484;-86
2024/02/15 05:17:00;;;;;;;5.10;2.40;;;8.80;98.00;;;;;;5072605;28;20463;-86
2024/02/15 05:19:30;;;;;;;7.23;3.13;;;8.80;98.00;;;;;;5072679;28;20454;-86
2024/02/15 05:21:57;;;;;;;6.93;3.70;;;9.20;98.00;;;;;;5072314;28;20537;-85
2024/02/15 05:24:24;;;;;;;8.57;4.20;;;9.40;98.00;;;;;;5072763;28;20866;-86
2024/02/15 05:26:52;;;;;;;7.70;4.07;;;9.20;98.00;;;;;;5072720;28;20456;-86
2024/02/15 05:29:20;;;;;;;14.00;4.17;;;9.10;98.00;;;;;;5073264;28;20458;-86
2024/02/15 05:31:50;;;;;;;6.60;3.50;;;9.10;98.00;;;;;;5072139;28;20461;-86
2024/02/15 05:34:18;;;;;;;5.90;3.37;;;9.00;98.00;;;;;;5072683;28;20498;-85
2024/02/15 05:36:48;;;;;;;4.83;3.40;;;9.10;98.00;;;;;;5072372;28;20869;-86
2024/02/15 05:39:15;;;;;;;5.47;3.43;;;9.20;98.00;;;;;;5072527;28;20453;-86
2024/02/15 05:41:42;;;;;;;6.10;3.37;;;9.30;98.00;;;;;;5072387;28;20847;-86
2024/02/15 05:44:09;;;;;;;6.97;3.37;;;9.20;98.00;;;;;;5072379;28;20819;-86
2024/02/15 05:46:37;;;;;;;6.93;3.83;;;9.30;98.00;;;;;;5072659;28;21004;-86
2024/02/15 05:49:05;;;;;;;5.43;3.50;;;9.20;98.00;;;;;;5072343;28;20460;-85
2024/02/15 05:51:33;;;;;;;5.57;2.87;;;9.20;98.00;;;;;;5072366;28;20491;-85
2024/02/15 05:54:00;;;;;;;6.37;3.10;;;9.10;98.00;;;;;;5072556;28;20829;-85
2024/02/15 05:56:28;;;;;;;5.03;3.13;;;9.10;98.00;;;;;;5072283;28;20467;-86
2024/02/15 05:58:55;;;;;;;6.43;3.60;;;9.10;98.00;;;;;;5072296;28;20547;-86
2024/02/15 06:01:23;;;;;;;5.10;2.87;;;9.10;98.00;;;;;;5071445;28;20494;-86
2024/02/15 06:03:54;;;;;;;4.40;3.27;;;9.20;98.00;;;;;;5072017;28;20485;-86
2024/02/15 06:06:22;;;;;;;4.13;2.97;;;9.50;98.00;;;;;;5071899;28;20970;-86
2024/02/15 06:08:51;;;;;;;6.27;3.47;;;9.40;98.00;;;;;;5072046;28;20462;-86
2024/02/15 06:11:21;;;;;;;4.80;2.80;;;9.30;98.00;;;;;;5071401;28;20457;-86
2024/02/15 06:13:48;;;;;;;5.57;3.00;;;9.30;98.00;;;;;;5070240;28;20951;-86
2024/02/15 06:16:15;;;;;;;7.90;2.83;;;9.30;98.00;;;;;;5071569;28;20912;-86
2024/02/15 06:18:43;;;;;;;7.00;2.90;;;9.30;98.00;;;;;;5071708;28;20449;-86
2024/02/15 06:21:10;;;;;;;6.27;3.17;;;9.30;98.00;;;;;;5071213;28;20487;-86
2024/02/15 06:23:37;;;;;;;5.10;3.20;;;9.30;98.00;;;;;;5070942;28;20464;-86
2024/02/15 06:26:06;;;;;;;5.57;2.93;;;9.30;98.00;;;;;;5071581;28;20481;-86
2024/02/15 06:39:41;;;;;;;15.53;6.90;;;9.40;98.00;;;;;;5071638;28;20448;-86
2024/02/15 06:42:11;;;;;;;7.50;3.60;;;9.40;98.00;;;;;;5070969;28;20494;-87
2024/02/15 06:44:40;;;;;;;8.40;3.10;;;9.40;98.00;;;;;;5071372;28;20472;-86
2024/02/15 06:47:09;;;;;;;5.70;3.10;;;9.40;98.00;;;;;;5071063;28;20446;-86
2024/02/15 06:49:36;;;;;;;5.13;2.90;;;9.50;98.00;;;;;;5071562;28;20874;-86
2024/02/15 06:52:03;;;;;;;4.50;2.87;;;9.60;98.00;;;;;;5071054;28;20936;-86
2024/02/15 06:54:30;;;;;;;6.60;3.03;;;9.50;98.00;;;;;;5071428;28;20473;-86
2024/02/15 06:56:57;;;;;;;4.63;3.30;;;9.50;98.00;;;;;;5070773;28;20457;-86
2024/02/15 06:59:26;;;;;;;4.23;2.63;;;9.50;98.00;;;;;;5071359;28;20453;-86
2024/02/15 07:01:54;;;;;;;5.03;2.80;;;9.50;98.00;;;;;;5070332;28;20481;-86
2024/02/15 07:04:22;;;;;;;6.60;3.57;;;9.50;98.00;;;;;;5071098;28;20474;-86
2024/02/15 07:06:49;;;;;;;6.20;3.00;;;9.60;98.00;;;;;;5070128;28;20464;-86
2024/02/15 07:09:17;;;;;;;5.30;3.20;;;9.70;98.00;;;;;;5073732;28;20464;-86
2024/02/15 07:11:46;;;;;;;4.87;3.67;;;9.80;98.00;;;;;;5093054;28;20466;-86
2024/02/15 07:14:13;;;;;;;6.20;3.47;;;9.80;98.00;;;;;;5075361;28;20818;-86
2024/02/15 07:16:44;;;;;;;6.43;3.40;;;9.70;98.00;;;;;;5051333;28;20527;-86
2024/02/15 07:19:11;;;;;;;7.60;3.20;;;9.70;98.00;;;;;;5051774;28;20453;-86
2024/02/15 07:21:39;;;;;;;10.83;4.10;;;9.80;98.00;;;;;;5051518;28;20591;-85
2024/02/15 07:24:07;;;;;;;5.57;3.90;;;9.80;98.00;;;;;;5051996;28;20493;-85
2024/02/15 07:26:35;;;;;;;7.27;4.47;;;9.80;98.00;;;;;;5051738;28;20440;-85
2024/02/15 07:29:05;;;;;;;6.93;4.00;;;9.90;98.00;;;;;;5052482;28;20552;-85
2024/02/15 07:31:33;;;;;;;6.80;4.10;;;9.90;98.00;;;;;;5051641;28;20450;-85
2024/02/15 07:34:01;;;;;;;7.40;4.10;;;9.90;98.00;;;;;;5051905;28;20550;-85
2024/02/15 07:36:28;;;;;;;8.40;4.50;;;9.90;98.00;;;;;;5055613;28;20463;-86
2024/02/15 07:39:00;;;;;;;15.77;4.73;;;10.00;98.00;;;;;;5056101;28;20484;-85
2024/02/15 07:41:27;;;;;;;10.20;4.23;;;10.10;98.00;;;;;;5055384;28;20476;-86
2024/02/15 07:43:57;;;;;;;11.90;4.57;;;10.10;98.00;;;;;;5055790;28;20465;-86
2024/02/15 07:46:25;;;;;;;9.87;4.47;;;10.10;98.00;;;;;;5055694;28;20437;-86
2024/02/15 07:49:00;;;;;;;8.03;4.60;;;10.20;98.00;;;;;;5056094;28;20468;-85
2024/02/15 07:51:29;;;;;;;9.03;4.60;;;10.30;98.00;;;;;;5056388;28;20505;-84
2024/02/15 07:54:01;;;;;;;11.87;5.40;;;10.50;98.00;;;;;;5056256;28;20992;-84
2024/02/15 07:56:28;;;;;;;7.93;4.60;;;10.40;98.00;;;;;;5056637;28;20441;-85
2024/02/15 07:58:56;;;;;;;12.13;5.30;;;10.40;98.00;;;;;;5055891;28;20465;-86
2024/02/15 08:01:23;;;;;;;8.90;5.00;;;10.50;98.00;;;;;;5054555;28;20471;-85
2024/02/15 08:03:50;;;;;;;10.20;5.10;;;10.50;98.00;;;;;;5055780;28;20445;-86
2024/02/15 08:06:18;;;;;;;10.17;5.07;;;10.50;98.00;;;;;;5055591;28;20449;-86
2024/02/15 08:08:49;;;;;;;9.17;4.97;;;10.50;98.00;;;;;;5055365;28;20461;-86
2024/02/15 08:11:16;;;;;;;13.93;5.07;;;10.50;98.00;;;;;;5054999;28;20451;-86
2024/02/15 08:13:49;;;;;;;8.10;4.03;;;10.50;98.00;;;;;;5055462;28;20458;-86
2024/02/15 08:16:17;;;;;;;8.57;4.30;;;10.60;98.00;;;;;;5054605;28;20582;-85
2024/02/15 08:18:45;;;;;;;8.80;4.23;;;10.60;98.00;;;;;;5054831;28;20465;-86
2024/02/15 08:21:13;;;;;;;8.80;4.87;;;10.70;98.00;;;;;;5054518;28;20491;-85
2024/02/15 08:23:40;;;;;;;14.13;5.70;;;10.90;98.00;;;;;;5055090;28;20465;-86
2024/02/15 08:26:10;;;;;;;12.70;5.23;;;10.90;98.00;;;;;;5054662;28;21005;-86
2024/02/15 08:28:37;;;;;;;9.17;4.80;;;10.90;98.00;;;;;;5055194;28;20455;-85
2024/02/15 08:31:05;;;;;;;10.30;4.87;;;10.90;98.00;;;;;;5053258;28;20462;-86
2024/02/15 08:33:32;;;;;;;9.93;5.00;;;11.10;98.00;;;;;;5053816;28;20471;-85
2024/02/15 08:36:02;;;;;;;10.17;5.10;;;11.30;98.00;;;;;;5053023;28;20850;-86
2024/02/15 08:38:29;;;;;;;13.90;5.70;;;11.60;98.00;;;;;;5054207;28;20497;-86
2024/02/15 08:40:56;;;;;;;13.87;5.37;;;11.80;98.00;;;;;;5053685;28;20497;-85
2024/02/15 08:43:24;;;;;;;12.30;5.30;;;11.80;98.00;;;;;;5051778;28;20470;-85
2024/02/15 08:45:51;;;;;;;9.13;5.40;;;12.00;98.00;;;;;;5052379;28;20487;-86
2024/02/15 08:48:18;;;;;;;8.23;4.43;;;12.00;98.00;;;;;;5065879;28;20456;-85
2024/02/15 08:50:45;;;;;;;12.00;5.23;;;12.00;98.00;;;;;;5067053;28;20455;-85
2024/02/15 08:53:14;;;;;;;14.67;5.03;;;12.10;98.00;;;;;;5053422;28;20469;-84
2024/02/15 08:55:41;;;;;;;8.47;4.90;;;12.20;98.00;;;;;;5053986;28;20475;-85
2024/02/15 08:58:09;;;;;;;11.27;4.80;;;12.20;98.00;;;;;;5071419;28;20822;-84
2024/02/15 09:00:44;;;;;;;11.93;5.90;;;12.30;98.00;;;;;;5074040;28;20542;-84
2024/02/15 09:03:11;;;;;;;9.93;4.73;;;12.20;98.00;;;;;;5068204;28;20454;-85
2024/02/15 09:05:40;;;;;;;8.20;4.30;;;12.20;98.00;;;;;;5066750;28;20506;-85
2024/02/15 09:08:07;;;;;;;7.07;4.00;;;12.20;98.00;;;;;;5064221;28;20456;-86
2024/02/15 09:10:45;;;;;;;10.33;4.03;;;12.30;98.00;;;;;;5065001;28;20466;-86
2024/02/15 09:13:12;;;;;;;8.23;4.27;;;12.40;98.00;;;;;;5067672;28;20541;-85
2024/02/15 09:15:41;;;;;;;5.43;3.70;;;12.50;98.00;;;;;;5072950;28;20484;-86
2024/02/15 09:18:09;;;;;;;6.07;3.67;;;12.60;98.00;;;;;;5072484;28;20466;-85
2024/02/15 09:20:40;;;;;;;6.77;3.50;;;12.70;98.00;;;;;;5072214;28;20467;-85
2024/02/15 09:23:09;;;;;;;6.00;3.97;;;12.70;98.00;;;;;;5072483;28;20449;-85
2024/02/15 09:25:38;;;;;;;6.10;3.57;;;12.80;98.00;;;;;;5060714;28;20481;-85
2024/02/15 09:28:07;;;;;;;8.70;3.80;;;12.90;98.00;;;;;;5052923;28;20943;-85
2024/02/15 09:30:35;;;;;;;6.37;3.80;;;12.90;98.00;;;;;;5054114;28;20842;-85
2024/02/15 09:33:04;;;;;;;7.50;3.63;;;12.90;98.00;;;;;;5057578;28;20957;-85
2024/02/15 09:35:31;;;;;;;5.90;3.60;;;13.10;98.00;;;;;;5091823;28;20475;-85
2024/02/15 09:37:59;;;;;;;7.03;3.43;;;13.10;98.00;;;;;;5074299;28;20459;-85
2024/02/15 09:40:29;;;;;;;7.47;3.40;;;13.20;98.00;;;;;;5072121;28;20469;-85
2024/02/15 09:42:56;;;;;;;5.90;3.43;;;13.40;98.00;;;;;;5071849;28;20487;-85
2024/02/15 09:45:24;;;;;;;4.30;3.10;;;13.40;98.00;;;;;;5072165;28;20675;-85
2024/02/15 09:47:52;;;;;;;5.87;3.40;;;13.50;98.00;;;;;;5053428;28;20451;-86
2024/02/15 09:50:21;;;;;;;9.63;3.17;;;13.60;98.00;;;;;;5052688;28;20511;-86
2024/02/15 09:52:51;;;;;;;6.40;3.20;;;13.70;98.00;;;;;;5052338;28;20843;-86
2024/02/15 09:55:28;;;;;;;7.77;3.20;;;13.80;98.00;;;;;;5053550;28;20484;-86
2024/02/15 09:57:56;;;;;;;6.27;3.30;;;13.90;98.00;;;;;;5053414;28;20465;-85
2024/02/15 10:00:23;;;;;;;6.90;3.13;;;14.00;98.00;;;;;;5062006;28;20762;-85
2024/02/15 10:02:52;;;;;;;4.70;2.60;;;14.20;98.00;;;;;;5070657;28;20491;-85
2024/02/15 10:05:22;;;;;;;3.40;2.40;;;14.20;98.00;;;;;;5071641;28;20820;-85
2024/02/15 10:07:50;;;;;;;4.90;2.90;;;14.40;98.00;;;;;;5071273;28;20453;-85
2024/02/15 10:10:19;;;;;;;4.37;2.50;;;14.50;98.00;;;;;;5071496;28;20455;-85
2024/02/15 10:12:48;;;;;;;6.70;2.77;;;14.50;98.00;;;;;;5066861;28;20449;-85
2024/02/15 10:15:30;;;;;;;4.33;2.63;;;14.60;98.00;;;;;;5065753;28;21030;-85
2024/02/15 10:17:58;;;;;;;5.50;3.37;;;14.70;98.00;;;;;;5071251;28;20487;-85
2024/02/15 10:20:27;;;;;;;3.60;2.53;;;14.90;98.00;;;;;;5071381;28;20955;-86
2024/02/15 10:27:10;;;;;;;;;;;;;;;;;;;;;
2024/02/15 10:36:26;;;;;;;2.83;2.00;;;15.50;98.00;;;;;;5060189;22;20489;-63
2024/02/15 10:38:54;;;;;;;3.53;2.03;;;15.60;98.00;;;;;;5052596;28;20450;-63
2024/02/15 10:41:21;;;;;;;4.13;1.90;;;15.80;98.00;;;;;;5052345;28;20521;-63
2024/02/15 10:43:49;;;;;;;6.60;1.97;;;15.90;98.00;;;;;;5052256;28;20454;-63
2024/02/15 10:46:17;;;;;;;4.20;2.07;;;16.00;98.00;;;;;;5052481;28;20446;-63
2024/02/15 10:48:46;;;;;;;5.30;2.10;;;16.10;98.00;;;;;;5052445;28;20503;-63
2024/02/15 10:51:16;;;;;;;2.17;1.80;;;16.10;98.00;;;;;;5052217;28;20485;-63
2024/02/15 10:53:55;;;;;;;2.97;1.80;;;16.30;98.00;;;;;;5052147;28;20454;-64
2024/02/15 10:56:29;;;;;;;3.07;1.70;;;16.40;98.00;;;;;;5051902;28;20461;-63
2024/02/15 10:59:05;;;;;;;2.90;1.80;;;16.50;98.00;;;;;;5052160;28;20454;-63
2024/02/15 11:01:34;;;;;;;2.83;1.70;;;16.60;98.00;;;;;;5052330;28;20571;-64
2024/02/15 11:04:08;;;;;;;1.97;1.73;;;16.80;98.00;;;;;;5052124;28;20458;-63
2024/02/15 11:06:41;;;;;;;1.60;1.50;;;16.90;98.00;;;;;;5052466;28;20480;-64
2024/02/15 11:09:11;;;;;;;2.40;1.60;;;17.00;98.00;;;;;;5051390;28;20519;-63
2024/02/15 11:11:39;;;;;;;2.37;1.70;;;17.20;98.00;;;;;;5052166;28;20920;-64
2024/02/15 11:14:25;;;;;;;3.63;1.60;;;17.30;98.00;;;;;;5052107;28;20528;-64
2024/02/15 11:16:52;;;;;;;3.30;1.80;;;17.40;98.00;;;;;;5052156;28;20445;-64
2024/02/15 11:19:42;;;;;;;2.30;1.80;;;17.60;98.00;;;;;;5001294;28;20490;-64
2024/02/15 11:22:10;;;;;;;3.87;1.90;;;17.80;98.00;;;;;;5051665;28;20489;-64
2024/02/15 11:24:47;;;;;;;3.67;1.70;;;18.10;98.00;;;;;;5051140;28;21053;-63
2024/02/15 11:27:37;;;;;;;2.23;1.70;;;18.30;98.00;;;;;;5051460;28;20458;-64
2024/02/15 11:30:09;;;;;;;2.90;1.90;;;18.50;98.00;;;;;;5051785;28;20461;-63
2024/02/15 11:32:39;;;;;;;3.37;1.70;;;18.60;98.00;;;;;;5051253;28;20532;-64
2024/02/15 11:35:11;;;;;;;3.30;1.70;;;18.80;98.00;;;;;;5034323;28;20959;-64
2024/02/15 11:38:09;;;;;;;7.60;1.77;;;19.00;98.00;;;;;;5051369;28;20453;-63
2024/02/15 11:41:03;;;;;;;2.27;1.70;;;19.30;98.00;;;;;;5035745;28;20458;-63
2024/02/15 11:43:58;;;;;;;2.10;1.73;;;19.70;98.00;;;;;;5051602;28;20486;-63
2024/02/15 11:46:29;;;;;;;2.60;1.80;;;19.90;98.00;;;;;;5034910;28;20450;-63
2024/02/15 11:48:58;;;;;;;4.20;1.80;;;19.90;98.00;;;;;;5034067;28;20456;-64
2024/02/15 11:51:42;;;;;;;2.70;1.70;;;20.10;98.00;;;;;;5051502;28;20458;-64
2024/02/15 11:54:11;;;;;;;4.47;1.90;;;20.50;98.00;;;;;;5051531;28;20841;-64
2024/02/15 11:57:04;;;;;;;3.60;1.80;;;20.90;98.00;;;;;;5051531;28;20940;-63
2024/02/15 11:59:52;;;;;;;2.27;1.70;;;21.10;98.00;;;;;;5051182;28;20449;-64
2024/02/15 12:18:55;;;;;;;3.50;2.00;;;21.40;97.00;;;;;;5050994;28;20456;-64
2024/02/15 12:21:25;;;;;;;3.60;2.00;;;21.50;97.60;;;;;;5051419;28;20454;-63
2024/02/15 12:23:53;;;;;;;2.17;1.80;;;21.40;98.00;;;;;;5054751;28;20458;-63
2024/02/15 12:26:20;;;;;;;2.37;1.70;;;21.50;96.20;;;;;;5054575;28;20931;-64
2024/02/15 12:28:57;;;;;;;3.60;1.70;;;21.70;96.10;;;;;;5054834;28;20490;-64
2024/02/15 12:31:26;;;;;;;4.27;1.70;;;21.70;94.90;;;;;;5055006;28;20457;-63
2024/02/15 12:34:02;;;;;;;2.13;1.70;;;21.50;94.60;;;;;;5054716;28;20454;-63
2024/02/15 12:36:32;;;;;;;2.00;1.80;;;21.50;95.20;;;;;;5054731;28;20802;-63
2024/02/15 12:39:02;;;;;;;2.50;1.67;;;21.50;95.50;;;;;;5054568;28;20457;-64
2024/02/15 12:41:30;;;;;;;1.77;1.70;;;21.60;94.40;;;;;;5054680;28;20822;-64
2024/02/15 12:43:59;;;;;;;2.80;1.90;;;21.80;95.50;;;;;;5037220;28;20886;-63
2024/02/15 12:46:27;;;;;;;3.10;1.60;;;22.00;94.00;;;;;;5054786;28;20481;-64
2024/02/15 12:49:08;;;;;;;2.30;1.60;;;21.90;95.70;;;;;;5054201;28;20490;-63
2024/02/15 12:51:35;;;;;;;1.57;1.57;;;22.10;94.80;;;;;;5054654;28;20511;-64
2024/02/15 12:54:10;;;;;;;3.07;1.87;;;21.90;93.90;;;;;;5036941;28;21031;-63
2024/02/15 12:56:37;;;;;;;2.20;1.60;;;22.00;95.70;;;;;;5054532;28;20453;-64
2024/02/15 12:59:07;;;;;;;2.00;1.60;;;22.00;93.90;;;;;;5020216;28;20450;-64
2024/02/15 13:01:38;;;;;;;3.77;1.80;;;21.80;93.90;;;;;;5054378;28;20952;-63
2024/02/15 13:04:06;;;;;;;2.03;1.77;;;21.50;94.50;;;;;;5087671;22;20488;-87
2024/02/15 15:55:11;;;;;;;3.60;2.30;;;18.80;98.00;;;;;;5371042;22;20471;-66
2024/02/15 15:57:39;;;;;;;6.40;2.20;;;18.60;98.00;;;;;;5034904;28;20473;-66
2024/02/15 16:00:12;;;;;;;3.90;2.57;;;18.40;98.00;;;;;;5034723;28;20450;-67
2024/02/15 16:02:42;;;;;;;3.43;2.60;;;18.10;98.00;;;;;;5044558;28;20484;-66
2024/02/15 16:05:11;;;;;;;3.80;2.40;;;18.00;98.00;;;;;;5047280;28;20504;-67
2024/02/15 16:07:40;;;;;;;5.70;2.73;;;17.80;98.00;;;;;;5034851;28;20455;-66
2024/02/15 16:10:10;;;;;;;5.87;2.50;;;17.60;98.00;;;;;;5017467;28;20602;-67
2024/02/15 16:12:39;;;;;;;3.37;2.47;;;17.40;98.00;;;;;;5016857;28;20447;-66
2024/02/15 16:15:08;;;;;;;3.40;2.40;;;17.20;98.00;;;;;;5034054;28;20972;-66
2024/02/15 16:17:36;;;;;;;3.40;2.23;;;17.00;98.00;;;;;;5047694;28;20511;-66
2024/02/15 16:20:05;;;;;;;3.20;2.37;;;16.90;98.00;;;;;;5052147;28;20465;-66
2024/02/15 16:22:32;;;;;;;3.90;2.63;;;16.70;98.00;;;;;;5052878;28;20486;-67
2024/02/15 16:25:05;;;;;;;3.60;2.40;;;16.60;98.00;;;;;;5053833;28;20450;-66
2024/02/15 16:27:32;;;;;;;5.03;2.90;;;16.60;98.00;;;;;;5053742;28;20904;-66
2024/02/15 16:30:02;;;;;;;6.03;2.67;;;16.60;98.00;;;;;;5053812;28;20462;-67
2024/02/15 16:32:31;;;;;;;4.33;2.50;;;16.50;98.00;;;;;;5053529;28;20821;-68
2024/02/15 16:34:59;;;;;;;4.57;3.07;;;16.40;98.00;;;;;;5052507;28;20461;-66
2024/02/15 16:37:27;;;;;;;3.47;2.53;;;16.30;98.00;;;;;;5053715;28;20456;-67
2024/02/15 16:39:54;;;;;;;5.30;2.90;;;16.10;98.00;;;;;;5054139;28;20453;-67
2024/02/15 16:42:33;;;;;;;6.17;3.27;;;16.10;98.00;;;;;;5053966;28;20477;-67
2024/02/15 16:45:01;;;;;;;4.03;2.77;;;15.90;98.00;;;;;;5053719;28;20467;-66
2024/02/15 16:47:35;;;;;;;5.20;2.83;;;15.70;98.00;;;;;;5053563;28;20457;-66
2024/02/15 16:50:04;;;;;;;4.57;2.73;;;15.70;98.00;;;;;;5052745;28;20450;-65
2024/02/15 16:52:31;;;;;;;4.07;2.53;;;15.60;98.00;;;;;;5053541;28;20750;-66
2024/02/15 16:54:58;;;;;;;4.97;2.90;;;15.50;98.00;;;;;;5053217;28;21007;-66
2024/02/15 16:57:26;;;;;;;5.97;3.47;;;15.50;98.00;;;;;;5052880;28;20844;-66
2024/02/15 16:59:53;;;;;;;5.87;2.87;;;15.50;98.00;;;;;;5053303;28;20454;-66
2024/02/15 17:02:21;;;;;;;5.10;3.03;;;15.50;98.00;;;;;;5053161;28;21061;-67
2024/02/15 17:04:48;;;;;;;5.97;3.03;;;15.50;98.00;;;;;;5053348;28;20449;-66
2024/02/15 17:07:15;;;;;;;9.83;3.50;;;15.40;98.00;;;;;;5034158;28;20449;-66
2024/02/15 17:09:43;;;;;;;3.70;2.87;;;15.30;98.00;;;;;;5051434;28;20456;-65
2024/02/15 17:12:10;;;;;;;7.60;3.40;;;15.20;98.00;;;;;;5033491;28;20999;-67